KSSF/SSF METAR and TAF weather

Enter ICAO airport designator
Station Type Date Time Source
KSSF METAR 2019/12/07 04:53 UTC NOAA

KSSF 070453Z AUTO 02005KT 10SM CLR 14/05 A3027 RMK AO2 SLP247 T01390050 402390089


Station Type Date Time Source
KSSF Decoded METAR 2019/12/07 04:53 UTC NOAA

SAN ANTONIO STINSON MUNI, TX, United States (KSSF) 29-20N 098-28W 176M
Dec 06, 2019 - 11:53 PM EST / 2019.12.07 0453 UTC
Wind: from the NNE (020 degrees) at 6 MPH (5 KT):0
Visibility: 10 mile(s):0
Sky conditions: clear
Temperature: 57.0 F (13.9 C)
Dew Point: 41.0 F (5.0 C)
Relative Humidity: 54%
Pressure (altimeter): 30.27 in. Hg (1025 hPa)
ob: KSSF 070453Z AUTO 02005KT 10SM CLR 14/05 A3027 RMK AO2 SLP247 T01390050 402390089
cycle: 5

Station Type Date Time Source
KSSF TAF 2019/12/06 18:22 UTC NOAA

TAF KSSF 061720Z 0618/0718 35010G20KT P6SM FEW250
FM062300 36008KT P6SM FEW250
FM070300 02006KT P6SM SKC

Example: see airport list